Time;durP1;ratioP1;P1;durP2;ratioP2;P2;SDS_P1;SDS_P2;PMS_P1;PMS_P2;Temp;Humidity;BMP_temperature;BMP_pressure;BME280_temperature;BME280_humidity;BME280_pressure;Samples;Min_cycle;Max_cycle;Signal;HPM_P1;HPM_P2
2021/10/28 00:12:13;;;;;;;2.50;2.17;;;12.90;99.90;;;;;;5072902;28;20134;-37
2021/10/28 00:14:40;;;;;;;3.72;1.80;;;12.90;99.90;;;;;;5072724;28;20510;-37
2021/10/28 00:17:16;;;;;;;2.35;1.90;;;12.90;99.90;;;;;;5072710;28;20103;-37
2021/10/28 00:19:42;;;;;;;2.20;2.00;;;12.80;99.90;;;;;;5071729;28;20048;-37
2021/10/28 00:22:11;;;;;;;5.25;2.47;;;12.80;99.90;;;;;;5072521;28;20037;-37
2021/10/28 00:24:37;;;;;;;4.50;2.33;;;12.70;99.90;;;;;;5072598;28;20036;-37
2021/10/28 00:27:03;;;;;;;3.75;2.30;;;12.70;99.90;;;;;;5072689;28;20092;-37
2021/10/28 00:29:29;;;;;;;3.03;2.05;;;12.70;99.90;;;;;;5072486;28;20063;-36
2021/10/28 00:31:56;;;;;;;2.00;1.80;;;12.70;99.90;;;;;;5072327;28;20093;-36
2021/10/28 00:34:21;;;;;;;2.45;2.10;;;12.60;99.90;;;;;;5071425;28;20070;-36
2021/10/28 00:36:48;;;;;;;3.88;1.98;;;12.60;99.90;;;;;;5072511;28;20021;-36
2021/10/28 00:39:14;;;;;;;3.72;2.40;;;12.60;99.90;;;;;;5072412;28;20016;-36
2021/10/28 00:41:40;;;;;;;2.10;1.67;;;12.50;99.90;;;;;;5072474;28;20047;-36
2021/10/28 00:44:07;;;;;;;3.85;2.33;;;12.50;99.90;;;;;;5072504;28;20094;-37
2021/10/28 00:46:35;;;;;;;2.30;2.10;;;12.50;99.90;;;;;;5072363;28;20025;-37
2021/10/28 00:49:02;;;;;;;3.08;2.60;;;12.40;99.90;;;;;;5071402;28;20383;-37
2021/10/28 00:51:30;;;;;;;2.75;2.00;;;12.40;99.90;;;;;;5072231;28;20395;-37
2021/10/28 00:53:57;;;;;;;2.83;2.17;;;12.30;99.90;;;;;;5074988;28;20027;-36
2021/10/28 00:56:24;;;;;;;3.42;2.65;;;12.30;99.90;;;;;;5076312;28;20391;-37
2021/10/28 00:58:51;;;;;;;2.20;1.77;;;12.20;99.90;;;;;;5076455;28;20017;-36
2021/10/28 01:01:16;;;;;;;3.15;2.10;;;12.20;99.90;;;;;;5076320;28;20040;-37
2021/10/28 01:03:42;;;;;;;5.30;2.80;;;12.20;99.90;;;;;;5075181;28;20025;-37
2021/10/28 01:06:09;;;;;;;3.83;2.85;;;12.10;99.90;;;;;;5076159;28;20066;-37
2021/10/28 01:08:38;;;;;;;3.25;2.45;;;12.10;99.90;;;;;;5076119;28;20056;-36
2021/10/28 01:11:05;;;;;;;2.92;2.63;;;12.00;99.90;;;;;;5075912;28;20021;-36
2021/10/28 01:13:31;;;;;;;3.92;2.38;;;12.00;99.90;;;;;;5076002;28;20328;-36
2021/10/28 01:15:56;;;;;;;4.05;2.90;;;11.90;99.90;;;;;;5075941;28;20024;-37
2021/10/28 01:18:25;;;;;;;3.15;2.85;;;11.80;99.90;;;;;;5075827;28;20016;-36
2021/10/28 01:20:54;;;;;;;2.83;2.50;;;11.70;99.90;;;;;;5075062;28;20356;-37
2021/10/28 01:23:21;;;;;;;3.38;2.60;;;11.60;99.90;;;;;;5076074;28;20371;-36
2021/10/28 01:25:52;;;;;;;4.28;2.92;;;11.50;99.90;;;;;;5075812;28;20017;-36
2021/10/28 01:28:18;;;;;;;2.63;2.42;;;11.40;99.90;;;;;;5075711;28;20095;-36
2021/10/28 01:30:49;;;;;;;4.07;3.47;;;11.30;99.90;;;;;;5075397;28;20062;-37
2021/10/28 01:33:15;;;;;;;7.43;3.45;;;11.20;99.90;;;;;;5075639;28;20017;-36
2021/10/28 01:35:40;;;;;;;3.42;3.13;;;11.10;99.90;;;;;;5074688;28;20048;-36
2021/10/28 01:38:07;;;;;;;5.97;3.25;;;11.00;99.90;;;;;;5075553;28;20513;-36
2021/10/28 01:40:32;;;;;;;3.45;2.85;;;10.90;99.90;;;;;;5075475;28;20028;-36
2021/10/28 01:42:58;;;;;;;4.90;3.47;;;10.80;99.90;;;;;;5075537;28;20070;-36
2021/10/28 01:45:23;;;;;;;6.18;3.70;;;10.80;99.90;;;;;;5075275;28;20052;-37
2021/10/28 01:47:49;;;;;;;4.15;3.42;;;10.70;99.90;;;;;;5075450;28;20071;-37
2021/10/28 01:50:14;;;;;;;6.72;3.88;;;10.60;99.90;;;;;;5074312;28;20031;-36
2021/10/28 01:52:40;;;;;;;7.55;4.00;;;10.50;99.90;;;;;;5075250;28;20173;-37
2021/10/28 01:55:09;;;;;;;5.47;3.72;;;10.40;99.90;;;;;;5075382;28;20033;-36
2021/10/28 01:57:35;;;;;;;5.90;3.90;;;10.40;99.90;;;;;;5075146;28;20033;-36
2021/10/28 02:00:01;;;;;;;4.50;3.40;;;10.30;99.90;;;;;;5075084;28;20020;-36
2021/10/28 02:02:26;;;;;;;4.60;3.70;;;10.30;99.90;;;;;;5075085;28;20521;-37
2021/10/28 02:04:51;;;;;;;4.45;3.88;;;10.30;99.90;;;;;;5073740;28;20388;-36
2021/10/28 02:07:17;;;;;;;4.63;3.58;;;10.20;99.90;;;;;;5075115;28;20040;-36
2021/10/28 02:09:42;;;;;;;6.05;3.30;;;10.30;99.90;;;;;;5074994;28;20036;-36
2021/10/28 02:12:08;;;;;;;4.72;3.42;;;10.30;99.90;;;;;;5074827;28;20064;-36
2021/10/28 02:14:34;;;;;;;3.80;3.33;;;10.20;99.90;;;;;;5074766;28;20130;-36
2021/10/28 02:16:59;;;;;;;4.95;3.83;;;10.20;99.90;;;;;;5074903;28;20017;-36
2021/10/28 02:19:25;;;;;;;4.15;3.58;;;10.20;99.90;;;;;;5073863;28;20028;-36
2021/10/28 02:21:50;;;;;;;4.20;3.25;;;10.20;99.90;;;;;;5074879;28;20038;-36
2021/10/28 02:24:16;;;;;;;4.18;3.38;;;10.20;99.90;;;;;;5074711;28;20033;-36
2021/10/28 02:26:42;;;;;;;3.83;3.05;;;10.20;99.90;;;;;;5074636;28;20379;-37
2021/10/28 02:29:08;;;;;;;4.65;3.78;;;10.30;99.90;;;;;;5074610;28;20028;-36
2021/10/28 02:31:35;;;;;;;5.75;4.50;;;10.30;99.90;;;;;;5074335;28;20044;-37
2021/10/28 02:34:00;;;;;;;4.95;4.25;;;10.30;99.90;;;;;;5073621;28;20020;-36
2021/10/28 02:36:26;;;;;;;6.40;3.90;;;10.20;99.90;;;;;;5074478;28;20039;-37
2021/10/28 02:38:51;;;;;;;4.28;3.88;;;10.20;99.90;;;;;;5074562;28;20380;-36
2021/10/28 02:41:17;;;;;;;4.40;3.63;;;10.20;99.90;;;;;;5074501;28;20024;-37
2021/10/28 02:43:42;;;;;;;4.70;4.20;;;10.20;99.90;;;;;;5074213;28;20108;-37
2021/10/28 02:46:08;;;;;;;6.30;4.60;;;10.10;99.90;;;;;;5074402;28;20475;-36
2021/10/28 02:48:34;;;;;;;7.00;3.92;;;10.10;99.90;;;;;;5073794;28;20020;-36
2021/10/28 02:50:59;;;;;;;6.43;4.70;;;10.00;99.90;;;;;;5073772;28;20024;-36
2021/10/28 02:53:24;;;;;;;4.85;3.90;;;10.00;99.90;;;;;;5074150;28;20057;-37
2021/10/28 02:55:50;;;;;;;8.98;4.97;;;9.90;99.90;;;;;;5074166;28;20487;-36
2021/10/28 02:58:17;;;;;;;6.03;4.38;;;9.80;99.90;;;;;;5074077;28;20024;-37
2021/10/28 03:00:43;;;;;;;5.90;4.68;;;9.70;99.90;;;;;;5073982;28;20016;-37
2021/10/28 03:03:09;;;;;;;7.05;4.65;;;9.70;99.90;;;;;;5074002;28;20439;-36
2021/10/28 03:05:35;;;;;;;5.95;4.68;;;9.60;99.90;;;;;;5072976;28;20028;-36
2021/10/28 03:08:00;;;;;;;6.30;5.40;;;9.50;99.90;;;;;;5074024;28;20025;-36
2021/10/28 03:10:26;;;;;;;7.20;5.60;;;9.40;99.90;;;;;;5073682;28;20112;-36
2021/10/28 03:12:53;;;;;;;9.18;5.35;;;9.30;99.90;;;;;;5073575;28;20029;-36
2021/10/28 03:15:19;;;;;;;8.57;5.85;;;9.20;99.90;;;;;;5073019;28;20107;-36
2021/10/28 03:26:13;;;;;;;5.95;4.63;;;8.90;99.90;;;;;;5070033;28;20047;-36
2021/10/28 03:28:39;;;;;;;5.55;4.63;;;8.80;99.90;;;;;;5073408;28;20399;-36
2021/10/28 03:31:04;;;;;;;9.18;5.10;;;8.70;99.90;;;;;;5073221;28;20124;-36
2021/10/28 03:33:33;;;;;;;7.93;5.70;;;8.60;99.90;;;;;;5073238;28;20024;-36
2021/10/28 03:35:59;;;;;;;6.45;5.28;;;8.60;99.90;;;;;;5072994;28;20028;-36
2021/10/28 03:38:27;;;;;;;8.20;5.63;;;8.50;99.90;;;;;;5073230;28;20025;-37
2021/10/28 03:48:55;;;;;;;10.65;6.18;;;8.30;99.90;;;;;;5073035;28;20024;-36
2021/10/28 03:54:41;;;;;;;7.95;4.93;;;8.10;99.90;;;;;;5035926;28;20156;-36
2021/10/28 03:57:34;;;;;;;8.05;5.22;;;8.00;99.90;;;;;;5072837;28;20127;-36
2021/10/28 04:08:21;;;;;;;7.60;5.55;;;7.80;99.90;;;;;;5053317;28;20036;-36
2021/10/28 04:19:23;;;;;;;6.97;5.03;;;7.60;99.90;;;;;;5072266;28;20070;-36
2021/10/28 04:29:48;;;;;;;9.70;5.40;;;7.30;99.90;;;;;;5072632;28;20075;-36
2021/10/28 04:32:14;;;;;;;7.88;5.35;;;7.30;99.90;;;;;;5072493;28;20072;-40
2021/10/28 04:34:42;;;;;;;10.15;6.20;;;7.30;99.90;;;;;;5071630;28;20027;-36
2021/10/28 04:37:09;;;;;;;14.15;6.00;;;7.20;99.90;;;;;;5072647;28;20103;-36
2021/10/28 04:39:35;;;;;;;8.27;5.80;;;7.20;99.90;;;;;;5072566;28;20025;-36
2021/10/28 04:42:00;;;;;;;9.50;5.97;;;7.20;99.90;;;;;;5072484;28;20360;-36
2021/10/28 04:44:26;;;;;;;8.40;6.25;;;7.10;99.90;;;;;;5072570;28;20399;-36
2021/10/28 04:46:51;;;;;;;12.18;6.90;;;7.10;99.90;;;;;;5069089;28;20115;-36
2021/10/28 04:49:16;;;;;;;9.65;5.95;;;7.10;99.90;;;;;;5071285;28;20459;-37
2021/10/28 04:51:42;;;;;;;9.82;7.00;;;7.10;99.90;;;;;;5072245;28;20032;-36
2021/10/28 04:54:08;;;;;;;10.20;6.82;;;7.00;99.90;;;;;;5072490;28;20109;-36
2021/10/28 04:56:34;;;;;;;8.88;5.80;;;7.10;99.90;;;;;;5072338;28;20181;-37
2021/10/28 04:58:59;;;;;;;11.05;6.68;;;7.00;99.90;;;;;;5071152;28;20147;-36
2021/10/28 05:01:26;;;;;;;9.73;5.80;;;7.00;99.90;;;;;;5068930;28;20047;-36
2021/10/28 05:03:51;;;;;;;10.10;5.53;;;7.00;99.90;;;;;;5069641;28;20039;-36
2021/10/28 05:06:18;;;;;;;10.63;6.53;;;7.00;99.90;;;;;;5069781;28;20028;-36
2021/10/28 05:08:43;;;;;;;9.75;5.55;;;6.90;99.90;;;;;;5070689;28;20023;-36
2021/10/28 05:11:09;;;;;;;11.63;6.70;;;6.90;99.90;;;;;;5070913;28;20666;-36
2021/10/28 05:13:34;;;;;;;12.32;6.65;;;6.90;99.90;;;;;;5070840;28;20024;-36
2021/10/28 05:16:00;;;;;;;10.10;7.32;;;6.90;99.90;;;;;;5070678;28;20094;-36
2021/10/28 05:18:26;;;;;;;10.85;6.43;;;6.90;99.90;;;;;;5070752;28;20722;-36
2021/10/28 05:20:53;;;;;;;13.15;6.70;;;6.90;99.90;;;;;;5069814;28;20042;-36
2021/10/28 05:23:18;;;;;;;11.05;6.13;;;6.80;99.90;;;;;;5070763;28;20058;-36
2021/10/28 05:25:44;;;;;;;10.73;6.30;;;6.80;99.90;;;;;;5070706;28;20028;-36
2021/10/28 05:28:10;;;;;;;11.07;7.38;;;6.80;99.90;;;;;;5070811;28;20028;-36
2021/10/28 05:30:35;;;;;;;13.50;7.35;;;6.70;99.90;;;;;;5070444;28;20160;-36
2021/10/28 05:33:01;;;;;;;9.57;7.05;;;6.70;99.90;;;;;;5070593;28;20028;-35
2021/10/28 05:35:27;;;;;;;12.52;8.20;;;6.70;99.90;;;;;;5069765;28;20478;-36
2021/10/28 05:37:53;;;;;;;13.52;9.25;;;6.70;99.90;;;;;;5070648;28;20024;-35
2021/10/28 05:40:19;;;;;;;11.40;7.40;;;6.70;99.90;;;;;;5073888;28;20025;-36
2021/10/28 05:42:48;;;;;;;12.30;7.82;;;6.80;99.90;;;;;;5074181;28;20029;-36
2021/10/28 05:45:14;;;;;;;12.18;7.28;;;6.70;99.90;;;;;;5075431;28;20028;-35
2021/10/28 05:47:40;;;;;;;12.35;7.80;;;6.70;99.90;;;;;;5075450;28;20114;-36
2021/10/28 05:50:09;;;;;;;13.27;7.07;;;6.70;99.90;;;;;;5074250;28;20056;-36
2021/10/28 05:52:34;;;;;;;11.52;7.10;;;6.70;99.90;;;;;;5075338;28;20117;-35
2021/10/28 05:55:03;;;;;;;11.25;7.30;;;6.70;99.90;;;;;;5075209;28;20063;-36
2021/10/28 05:57:29;;;;;;;9.80;7.15;;;6.60;99.90;;;;;;5075394;28;20044;-36
2021/10/28 05:59:54;;;;;;;17.35;9.60;;;6.70;99.90;;;;;;5073712;28;20117;-36
2021/10/28 06:02:20;;;;;;;12.32;7.32;;;6.70;99.90;;;;;;5075160;28;20033;-36
2021/10/28 06:04:45;;;;;;;13.77;8.30;;;6.70;99.90;;;;;;5073655;28;20020;-36
2021/10/28 06:07:11;;;;;;;14.80;9.13;;;6.70;99.90;;;;;;5074958;28;20028;-35
2021/10/28 06:09:36;;;;;;;16.67;8.95;;;6.70;99.90;;;;;;5075054;28;20070;-37
2021/10/28 06:12:02;;;;;;;14.80;8.63;;;6.70;99.90;;;;;;5074811;28;20024;-36
2021/10/28 06:14:29;;;;;;;14.07;9.00;;;6.80;99.90;;;;;;5074827;28;20503;-36
2021/10/28 06:17:06;;;;;;;13.88;8.00;;;6.80;99.90;;;;;;5074836;28;20460;-36
2021/10/28 06:19:32;;;;;;;11.45;7.45;;;6.80;99.90;;;;;;5073703;28;20048;-36
2021/10/28 06:21:57;;;;;;;13.05;7.75;;;6.80;99.90;;;;;;5073389;28;20063;-36
2021/10/28 06:24:23;;;;;;;16.73;8.50;;;6.80;99.90;;;;;;5074765;28;20064;-36
2021/10/28 06:26:49;;;;;;;14.57;9.05;;;6.90;99.90;;;;;;5074585;28;20029;-35
2021/10/28 06:29:14;;;;;;;13.23;8.60;;;7.00;99.90;;;;;;5074633;28;20032;-36
2021/10/28 06:31:41;;;;;;;18.25;9.23;;;7.00;99.90;;;;;;5074484;28;20491;-36
2021/10/28 06:34:10;;;;;;;12.82;8.07;;;7.10;99.90;;;;;;5073289;28;20024;-36
2021/10/28 06:36:38;;;;;;;12.63;7.78;;;7.10;99.90;;;;;;5074568;28;20025;-36
2021/10/28 06:39:06;;;;;;;11.20;7.15;;;7.10;99.90;;;;;;5074440;28;20412;-36
2021/10/28 06:41:32;;;;;;;13.20;8.32;;;7.20;99.90;;;;;;5074290;28;20033;-36
2021/10/28 06:44:00;;;;;;;12.82;7.45;;;7.20;99.90;;;;;;5074342;28;20033;-36
2021/10/28 06:46:26;;;;;;;13.65;7.20;;;7.20;99.90;;;;;;5074418;28;20025;-36
2021/10/28 06:48:52;;;;;;;12.25;7.68;;;7.30;99.90;;;;;;5072947;28;20032;-36
2021/10/28 06:51:19;;;;;;;16.50;9.27;;;7.40;99.90;;;;;;5074202;28;20055;-36
2021/10/28 06:53:58;;;;;;;14.63;8.35;;;7.40;99.90;;;;;;5074107;28;20287;-35
2021/10/28 06:56:52;;;;;;;13.95;7.72;;;7.50;99.90;;;;;;5074127;28;20048;-36
2021/10/28 07:04:48;;;;;;;11.40;7.35;;;7.80;99.90;;;;;;5072872;28;20031;-36
2021/10/28 07:07:14;;;;;;;15.25;8.88;;;8.00;99.90;;;;;;5073867;28;20031;-36
2021/10/28 07:09:48;;;;;;;13.40;8.27;;;8.00;99.90;;;;;;5073917;28;20021;-36
2021/10/28 07:14:42;;;;;;;14.55;8.85;;;8.20;99.90;;;;;;5073796;28;20025;-36
2021/10/28 07:17:28;;;;;;;14.70;9.20;;;8.30;99.90;;;;;;5073421;28;20086;-36
2021/10/28 07:20:12;;;;;;;16.33;8.98;;;8.40;99.90;;;;;;5072381;28;20464;-36
2021/10/28 07:23:00;;;;;;;11.88;7.32;;;8.50;99.90;;;;;;5073653;28;20162;-36
2021/10/28 07:25:41;;;;;;;15.48;10.23;;;8.70;99.90;;;;;;5073453;28;20060;-36
2021/10/28 07:35:55;;;;;;;18.05;11.27;;;8.90;99.90;;;;;;5072263;28;20025;-36
2021/10/28 07:55:03;;;;;;;11.32;8.15;;;9.20;99.90;;;;;;5073176;28;20514;-36
2021/10/28 07:57:41;;;;;;;11.50;6.75;;;11.90;99.90;;;;;;5072972;28;20067;-36
2021/10/28 08:13:47;;;;;;;11.48;7.35;;;13.50;99.90;;;;;;5072999;28;20111;-34
2021/10/28 08:16:28;;;;;;;13.93;9.52;;;13.80;99.90;;;;;;5072642;28;20032;-34
2021/10/28 08:19:06;;;;;;;10.90;7.13;;;13.90;99.90;;;;;;5071432;28;20023;-34
2021/10/28 08:21:47;;;;;;;12.30;8.38;;;14.10;99.90;;;;;;5072602;28;20348;-35
2021/10/28 08:29:37;;;;;;;11.80;8.95;;;14.10;99.90;;;;;;5072612;28;20395;-35
2021/10/28 08:32:05;;;;;;;12.38;7.82;;;14.20;99.90;;;;;;5072147;28;20060;-35
2021/10/28 08:34:33;;;;;;;12.30;8.88;;;14.30;99.90;;;;;;5071157;28;20244;-34
2021/10/28 08:37:10;;;;;;;10.25;7.07;;;14.40;99.90;;;;;;5072454;28;20027;-34
2021/10/28 08:39:37;;;;;;;12.80;8.25;;;14.40;99.90;;;;;;5072484;28;20036;-34
2021/10/28 08:42:08;;;;;;;10.43;7.65;;;14.50;99.90;;;;;;5072414;28;20037;-34
2021/10/28 08:44:39;;;;;;;8.88;6.40;;;14.60;99.90;;;;;;5072382;28;20176;-34
2021/10/28 08:47:06;;;;;;;10.98;8.00;;;14.70;99.90;;;;;;5072386;28;20035;-35
2021/10/28 08:49:36;;;;;;;12.85;9.38;;;14.80;99.90;;;;;;5071153;28;20111;-34
2021/10/28 09:24:36;;;;;;;11.13;8.05;;;14.90;99.90;;;;;;5075823;28;20047;-34
2021/10/28 09:29:51;;;;;;;10.65;7.15;;;14.90;99.90;;;;;;5075807;28;20487;-34
2021/10/28 09:32:32;;;;;;;12.25;8.85;;;14.80;99.90;;;;;;5074258;28;20436;-34
2021/10/28 09:43:46;;;;;;;11.90;7.97;;;14.80;99.90;;;;;;5075633;28;20484;-34
2021/10/28 09:46:21;;;;;;;12.10;7.78;;;14.90;99.90;;;;;;5075291;28;20375;-34
2021/10/28 09:51:41;;;;;;;11.60;7.00;;;14.80;99.90;;;;;;5075142;28;20127;-34
2021/10/28 09:54:29;;;;;;;9.93;7.10;;;14.80;99.90;;;;;;5075215;28;20160;-34
2021/10/28 09:59:51;;;;;;;9.82;7.78;;;14.90;99.90;;;;;;5075075;28;20024;-34
2021/10/28 10:02:23;;;;;;;12.80;7.75;;;14.80;99.90;;;;;;5075090;28;20362;-35
2021/10/28 10:04:50;;;;;;;9.32;6.65;;;14.80;99.90;;;;;;5073871;28;20029;-34
2021/10/28 10:07:17;;;;;;;9.25;6.43;;;14.80;99.90;;;;;;5075015;28;20391;-37
2021/10/28 10:09:44;;;;;;;11.05;7.38;;;14.90;99.90;;;;;;5075106;28;20060;-37
2021/10/28 10:12:09;;;;;;;11.73;7.72;;;14.90;99.90;;;;;;5074890;28;20483;-37
2021/10/28 10:14:37;;;;;;;11.10;7.10;;;14.80;99.90;;;;;;5074909;28;20063;-37
2021/10/28 10:17:03;;;;;;;11.48;6.68;;;14.70;99.90;;;;;;5074952;28;20017;-37
2021/10/28 10:19:31;;;;;;;9.27;6.03;;;14.70;99.90;;;;;;5073620;28;20096;-37
2021/10/28 10:22:01;;;;;;;7.00;5.68;;;14.70;99.90;;;;;;5074864;28;20024;-37
2021/10/28 10:24:43;;;;;;;8.23;6.63;;;14.70;99.90;;;;;;5074312;28;20032;-37
2021/10/28 10:27:39;;;;;;;10.90;7.32;;;14.80;99.90;;;;;;5074679;28;20032;-37
2021/10/28 12:46:28;;;;;;;5.03;3.65;;;15.50;93.90;;;;;;5071263;28;20036;-37
2021/10/28 12:52:09;;;;;;;8.90;4.28;;;15.50;95.10;;;;;;5075259;28;20506;-37
2021/10/28 13:38:04;;;;;;;9.70;3.67;;;15.60;91.70;;;;;;5075682;28;20021;-37
2021/10/28 13:51:30;;;;;;;4.10;2.97;;;15.50;91.80;;;;;;5075328;28;20031;-37
2021/10/28 13:59:37;;;;;;;8.65;3.88;;;15.50;91.10;;;;;;5074782;28;20485;-37
2021/10/28 14:16:30;;;;;;;4.93;3.55;;;15.30;91.50;;;;;;5074974;28;20227;-36
2021/10/28 14:21:16;;;;;;;4.80;3.63;;;15.30;92.20;;;;;;5074992;28;20115;-36
2021/10/28 14:23:51;;;;;;;3.63;2.90;;;15.30;92.10;;;;;;5074778;28;20099;-36
2021/10/28 14:26:59;;;;;;;5.40;3.33;;;15.30;92.30;;;;;;5074813;28;20535;-36
2021/10/28 14:29:48;;;;;;;3.50;2.70;;;15.30;92.60;;;;;;5080365;28;20291;-37
2021/10/28 15:00:14;;;;;;;6.60;4.20;;;14.90;96.40;;;;;;5074011;28;20024;-36
2021/10/28 15:02:47;;;;;;;5.45;3.85;;;14.80;96.60;;;;;;5073708;28;20028;-37
2021/10/28 15:32:57;;;;;;;5.45;3.95;;;13.80;99.90;;;;;;5087094;28;20065;-39
2021/10/28 15:35:35;;;;;;;8.93;3.88;;;13.70;99.90;;;;;;5092601;28;20115;-37
2021/10/28 15:40:51;;;;;;;7.15;4.38;;;13.40;99.90;;;;;;5088580;28;20056;-37
2021/10/28 15:51:59;;;;;;;4.82;3.10;;;12.80;99.90;;;;;;5072645;28;20112;-36
2021/10/28 15:57:13;;;;;;;3.90;2.88;;;12.50;99.90;;;;;;5072681;28;20035;-36
2021/10/28 15:59:57;;;;;;;6.93;3.55;;;12.40;99.90;;;;;;5072356;28;20027;-37
2021/10/28 16:21:55;;;;;;;6.25;3.72;;;11.20;99.90;;;;;;5072712;28;20112;-36
2021/10/28 16:24:27;;;;;;;6.82;4.00;;;11.00;99.90;;;;;;5072486;28;20020;-36
2021/10/28 16:26:54;;;;;;;7.93;4.03;;;10.90;99.90;;;;;;5072667;28;20020;-36
2021/10/28 16:29:20;;;;;;;6.07;4.10;;;10.80;99.90;;;;;;5067769;28;20025;-36
2021/10/28 16:31:46;;;;;;;7.45;4.75;;;10.80;99.90;;;;;;5070633;28;20490;-36
2021/10/28 16:34:14;;;;;;;6.47;4.85;;;10.60;99.90;;;;;;5069848;28;20051;-36
2021/10/28 16:36:41;;;;;;;7.10;3.60;;;10.50;99.90;;;;;;5071144;28;20063;-36
2021/10/28 16:39:13;;;;;;;8.50;4.93;;;10.50;99.90;;;;;;5071228;28;20418;-36
2021/10/28 16:41:47;;;;;;;10.38;4.90;;;10.30;99.90;;;;;;5071048;28;20024;-36
2021/10/28 16:44:13;;;;;;;8.48;4.20;;;10.30;99.90;;;;;;5070748;28;20031;-37
2021/10/28 16:46:40;;;;;;;9.30;5.45;;;10.20;99.90;;;;;;5070837;28;20111;-36
2021/10/28 16:49:07;;;;;;;8.90;5.28;;;10.10;99.90;;;;;;5069903;28;20482;-37
2021/10/28 16:51:33;;;;;;;7.07;4.88;;;10.00;99.90;;;;;;5070691;28;20032;-36
2021/10/28 16:53:58;;;;;;;9.88;6.50;;;9.90;99.90;;;;;;5070738;28;20031;-36
2021/10/28 16:56:24;;;;;;;14.13;6.50;;;9.80;99.90;;;;;;5070940;28;20032;-36
2021/10/28 16:58:49;;;;;;;10.98;6.57;;;9.80;99.90;;;;;;5070775;28;20070;-37
2021/10/28 17:01:15;;;;;;;11.20;7.40;;;9.70;99.90;;;;;;5070383;28;20035;-36
2021/10/28 17:03:40;;;;;;;12.93;7.93;;;9.70;99.90;;;;;;5069879;28;20062;-36
2021/10/28 17:06:07;;;;;;;10.90;6.47;;;9.60;99.90;;;;;;5070600;28;20029;-36
2021/10/28 17:08:33;;;;;;;13.05;7.65;;;9.60;99.90;;;;;;5070692;28;20020;-36
2021/10/28 17:11:00;;;;;;;12.55;8.00;;;9.60;99.90;;;;;;5070652;28;20032;-36
2021/10/28 17:13:26;;;;;;;16.45;6.97;;;9.50;99.90;;;;;;5070685;28;20151;-37
2021/10/28 17:15:52;;;;;;;11.13;6.03;;;9.50;99.90;;;;;;5070319;28;20471;-36
2021/10/28 17:18:18;;;;;;;14.57;7.63;;;9.50;99.90;;;;;;5069657;28;20083;-36
2021/10/28 17:20:44;;;;;;;11.80;7.30;;;9.50;99.90;;;;;;5070564;28;20025;-36
2021/10/28 17:23:14;;;;;;;9.23;6.30;;;9.50;99.90;;;;;;5070401;28;20476;-36
2021/10/28 17:25:40;;;;;;;10.27;6.10;;;9.50;99.90;;;;;;5070610;28;20024;-36
2021/10/28 17:28:10;;;;;;;12.82;6.90;;;9.50;99.90;;;;;;5070224;28;20040;-36
2021/10/28 17:30:36;;;;;;;9.05;7.18;;;9.50;99.90;;;;;;5070293;28;20043;-36
2021/10/28 17:33:02;;;;;;;9.93;7.15;;;9.50;99.90;;;;;;5070383;28;20589;-36
2021/10/28 17:35:28;;;;;;;13.40;8.23;;;9.60;99.90;;;;;;5071350;28;20028;-36
2021/10/28 17:37:54;;;;;;;13.65;8.52;;;9.60;99.90;;;;;;5074006;28;20518;-37
2021/10/28 17:40:19;;;;;;;12.27;8.32;;;9.70;99.90;;;;;;5074010;28;20032;-36
2021/10/28 17:42:46;;;;;;;13.32;9.15;;;9.80;99.90;;;;;;5074160;28;20028;-36
2021/10/28 17:45:13;;;;;;;11.93;8.25;;;9.80;99.90;;;;;;5073764;28;20028;-36
2021/10/28 17:47:39;;;;;;;10.45;6.75;;;9.80;99.90;;;;;;5074051;28;20021;-36
2021/10/28 17:50:05;;;;;;;12.88;8.77;;;9.80;99.90;;;;;;5072971;28;20081;-37
2021/10/28 17:52:31;;;;;;;10.35;7.22;;;9.80;99.90;;;;;;5073874;28;20676;-36
2021/10/28 17:54:57;;;;;;;12.93;8.13;;;9.80;99.90;;;;;;5073764;28;20544;-37
2021/10/28 17:57:23;;;;;;;12.13;7.38;;;9.80;99.90;;;;;;5073738;28;20375;-36
2021/10/28 17:59:48;;;;;;;10.32;7.57;;;9.70;99.90;;;;;;5073812;28;20017;-36
2021/10/28 18:02:14;;;;;;;14.00;8.48;;;9.80;99.90;;;;;;5073454;28;20063;-36
2021/10/28 18:04:41;;;;;;;10.60;6.93;;;9.80;99.90;;;;;;5072853;28;20025;-36
2021/10/28 18:07:07;;;;;;;14.13;7.32;;;9.80;99.90;;;;;;5073550;28;20036;-36
2021/10/28 18:09:33;;;;;;;11.27;7.40;;;9.90;99.90;;;;;;5073461;28;20033;-36
2021/10/28 18:11:58;;;;;;;13.32;8.45;;;9.80;99.90;;;;;;5073388;28;20027;-36
2021/10/28 18:14:27;;;;;;;11.65;8.20;;;9.80;99.90;;;;;;5073473;28;20020;-37
2021/10/28 18:16:54;;;;;;;11.20;7.20;;;9.90;99.90;;;;;;5073358;28;20020;-36
2021/10/28 18:19:19;;;;;;;12.75;6.93;;;9.90;99.90;;;;;;5072514;28;20055;-37
2021/10/28 18:21:53;;;;;;;11.85;7.43;;;9.90;99.90;;;;;;5073347;28;20064;-36
2021/10/28 18:24:18;;;;;;;8.80;5.93;;;9.90;99.90;;;;;;5073155;28;20042;-37
2021/10/28 18:26:44;;;;;;;10.35;7.47;;;9.90;99.90;;;;;;5073159;28;20761;-36
2021/10/28 18:29:10;;;;;;;11.55;6.40;;;9.90;99.90;;;;;;5073076;28;20074;-36
2021/10/28 18:31:36;;;;;;;9.52;6.40;;;9.90;99.90;;;;;;5072898;28;20045;-37
2021/10/28 18:34:04;;;;;;;7.47;6.30;;;9.80;99.90;;;;;;5072157;28;20017;-36
2021/10/28 18:36:33;;;;;;;10.77;5.80;;;9.80;99.90;;;;;;5073090;28;20028;-36
2021/10/28 18:38:59;;;;;;;9.55;6.15;;;9.80;99.90;;;;;;5072959;28;20016;-37
2021/10/28 18:41:25;;;;;;;9.82;6.90;;;9.80;99.90;;;;;;5072829;28;20048;-36
2021/10/28 18:43:51;;;;;;;7.60;5.55;;;9.70;99.90;;;;;;5072979;28;20480;-36
2021/10/28 18:46:20;;;;;;;12.45;6.88;;;9.70;99.90;;;;;;5072571;28;20392;-36
2021/10/28 18:48:46;;;;;;;10.20;6.18;;;9.70;99.90;;;;;;5071892;28;20051;-36
2021/10/28 18:51:12;;;;;;;10.00;6.25;;;9.60;99.90;;;;;;5072542;28;20440;-37
2021/10/28 18:53:44;;;;;;;9.55;6.97;;;9.60;99.90;;;;;;5072677;28;20027;-36
2021/10/28 18:56:10;;;;;;;8.57;5.97;;;9.60;99.90;;;;;;5072540;28;20541;-36
2021/10/28 18:58:35;;;;;;;10.95;6.25;;;9.50;99.90;;;;;;5072490;28;20021;-36
2021/10/28 19:01:01;;;;;;;9.70;6.53;;;9.50;99.90;;;;;;5072523;28;20417;-36
2021/10/28 19:03:28;;;;;;;9.57;5.93;;;9.50;99.90;;;;;;5071691;28;20059;-36
2021/10/28 19:05:55;;;;;;;9.80;6.47;;;9.40;99.90;;;;;;5072384;28;20475;-36
2021/10/28 19:08:21;;;;;;;8.82;5.32;;;9.40;99.90;;;;;;5072287;28;20109;-36
2021/10/28 19:10:47;;;;;;;9.45;6.18;;;9.40;99.90;;;;;;5072339;28;20507;-36
2021/10/28 19:13:12;;;;;;;7.47;5.88;;;9.30;99.90;;;;;;5072079;28;20029;-37
2021/10/28 19:15:38;;;;;;;8.75;6.38;;;9.20;99.90;;;;;;5072380;28;20492;-36
2021/10/28 19:18:06;;;;;;;9.73;6.43;;;9.10;99.90;;;;;;5072236;28;20490;-36
2021/10/28 19:20:32;;;;;;;9.85;6.45;;;9.00;99.90;;;;;;5071417;28;20104;-37
2021/10/28 19:22:57;;;;;;;9.82;6.50;;;9.00;99.90;;;;;;5072119;28;20035;-36
2021/10/28 19:25:23;;;;;;;10.48;6.72;;;8.90;99.90;;;;;;5072076;28;20032;-37
2021/10/28 19:27:52;;;;;;;10.20;7.22;;;8.90;99.90;;;;;;5072126;28;20028;-36
2021/10/28 19:32:47;;;;;;;12.13;6.88;;;8.80;99.90;;;;;;5071677;28;20048;-36
2021/10/28 19:35:13;;;;;;;10.43;6.15;;;8.80;99.90;;;;;;5070727;28;20024;-36
2021/10/28 19:37:49;;;;;;;11.90;6.85;;;8.70;99.90;;;;;;5071813;28;20091;-37
2021/10/28 19:48:16;;;;;;;13.95;8.75;;;8.70;99.90;;;;;;5070471;28;20031;-36
2021/10/28 19:50:42;;;;;;;14.07;8.07;;;8.70;99.90;;;;;;5071670;28;20024;-36
2021/10/28 19:53:08;;;;;;;15.15;8.23;;;8.70;99.90;;;;;;5071302;28;20034;-36
2021/10/28 19:55:34;;;;;;;16.73;7.97;;;8.70;99.90;;;;;;5071385;28;20024;-36
2021/10/28 19:58:01;;;;;;;14.02;9.07;;;8.70;99.90;;;;;;5070923;28;20107;-36
2021/10/28 20:00:34;;;;;;;12.38;8.50;;;8.60;99.90;;;;;;5071389;28;20107;-36
2021/10/28 20:13:22;;;;;;;14.18;8.73;;;8.50;99.90;;;;;;5070810;28;20036;-36
2021/10/28 20:20:59;;;;;;;11.85;7.68;;;8.30;99.90;;;;;;5071082;28;20035;-36
2021/10/28 20:23:24;;;;;;;13.05;9.25;;;8.40;99.90;;;;;;5070942;28;20028;-35
2021/10/28 20:25:51;;;;;;;16.45;9.27;;;8.40;99.90;;;;;;5071055;28;20026;-36
2021/10/28 20:28:18;;;;;;;13.43;8.68;;;8.40;99.90;;;;;;5070966;28;20573;-36
2021/10/28 20:30:58;;;;;;;13.35;8.77;;;8.40;99.90;;;;;;5071203;28;20031;-36
2021/10/28 20:33:27;;;;;;;14.38;10.23;;;8.40;99.90;;;;;;5070847;28;20166;-36
2021/10/28 20:36:11;;;;;;;16.40;9.50;;;8.50;99.90;;;;;;5071879;28;20082;-36
2021/10/28 20:38:37;;;;;;;15.05;9.32;;;8.50;99.90;;;;;;5071807;28;20035;-36
2021/10/28 20:41:04;;;;;;;14.77;8.40;;;8.50;99.90;;;;;;5071785;28;20024;-36
2021/10/28 20:43:30;;;;;;;13.50;7.97;;;8.50;99.90;;;;;;5070431;28;20021;-36
2021/10/28 20:45:57;;;;;;;13.65;8.13;;;8.40;99.90;;;;;;5071636;28;20355;-36
2021/10/28 20:48:23;;;;;;;11.85;8.02;;;8.40;99.90;;;;;;5070658;28;20505;-36
2021/10/28 20:50:48;;;;;;;16.08;9.35;;;8.40;99.90;;;;;;5071670;28;20021;-36
2021/10/28 20:53:14;;;;;;;14.20;9.18;;;8.40;99.90;;;;;;5071366;28;20056;-35
2021/10/28 20:55:39;;;;;;;12.25;8.90;;;8.40;99.90;;;;;;5071728;28;20028;-36
2021/10/28 20:58:06;;;;;;;17.17;10.52;;;8.30;99.90;;;;;;5071511;28;20025;-35
2021/10/28 21:00:32;;;;;;;15.75;9.77;;;8.40;99.90;;;;;;5071546;28;20028;-36